Time;durP1;ratioP1;P1;durP2;ratioP2;P2;SDS_P1;SDS_P2;PMS_P1;PMS_P2;Temp;Humidity;BMP_temperature;BMP_pressure;BME280_temperature;BME280_humidity;BME280_pressure;Samples;Min_cycle;Max_cycle;Signal;HPM_P1;HPM_P2
2022/05/09 00:00:08;;;;;;;4.20;3.90;;;18.00;99.90;;;;;;5071044;28;20465;-81
2022/05/09 00:02:38;;;;;;;4.40;4.10;;;18.00;99.90;;;;;;5064356;28;20554;-81
2022/05/09 00:05:08;;;;;;;3.93;3.60;;;18.00;99.90;;;;;;5066452;28;20458;-80
2022/05/09 00:07:37;;;;;;;4.47;3.50;;;17.90;99.90;;;;;;5067818;28;20512;-80
2022/05/09 00:10:05;;;;;;;4.50;3.83;;;17.90;99.90;;;;;;5068212;28;20470;-83
2022/05/09 00:12:34;;;;;;;4.40;3.80;;;17.90;99.90;;;;;;5064013;28;20922;-80
2022/05/09 00:15:02;;;;;;;3.97;3.63;;;17.90;99.90;;;;;;5099569;28;20454;-80
2022/05/09 00:17:30;;;;;;;4.77;3.90;;;17.80;99.90;;;;;;5068829;28;20461;-79
2022/05/09 00:20:00;;;;;;;4.77;4.37;;;17.80;99.90;;;;;;5072283;28;20465;-82
2022/05/09 00:22:29;;;;;;;4.03;3.73;;;17.80;99.90;;;;;;5059956;28;20505;-81
2022/05/09 00:25:00;;;;;;;4.57;4.13;;;17.80;99.90;;;;;;5066899;28;20461;-79
2022/05/09 00:27:28;;;;;;;4.60;4.20;;;17.80;99.90;;;;;;5066178;28;20509;-80
2022/05/09 00:29:57;;;;;;;4.90;4.20;;;17.80;99.90;;;;;;5064396;28;20475;-80
2022/05/09 00:32:26;;;;;;;4.50;3.87;;;17.80;99.90;;;;;;5066970;28;20993;-79
2022/05/09 00:34:54;;;;;;;4.40;4.07;;;17.60;99.90;;;;;;5064858;28;20573;-79
2022/05/09 00:37:24;;;;;;;5.03;4.17;;;17.40;99.90;;;;;;5062378;28;20461;-80
2022/05/09 00:39:52;;;;;;;4.50;4.10;;;17.40;99.90;;;;;;5063077;28;20443;-80
2022/05/09 00:42:21;;;;;;;4.97;4.37;;;17.40;99.90;;;;;;5063549;28;20467;-80
2022/05/09 00:44:49;;;;;;;4.87;4.13;;;17.40;99.90;;;;;;5060672;28;20456;-80
2022/05/09 00:47:18;;;;;;;4.27;3.90;;;17.40;99.90;;;;;;5065491;28;20473;-79
2022/05/09 00:49:50;;;;;;;4.50;3.83;;;17.40;99.90;;;;;;5063810;28;20853;-80
2022/05/09 00:52:25;;;;;;;5.90;4.10;;;17.40;99.90;;;;;;5062221;28;20459;-81
2022/05/09 00:55:00;;;;;;;5.77;4.30;;;17.40;99.90;;;;;;5059455;28;20464;-80
2022/05/09 00:57:34;;;;;;;5.30;4.03;;;17.40;99.90;;;;;;5063217;28;20457;-80
2022/05/09 01:00:07;;;;;;;4.33;3.73;;;17.40;99.90;;;;;;5061960;28;20537;-79
2022/05/09 01:02:38;;;;;;;4.17;3.87;;;17.40;99.90;;;;;;5059573;28;20486;-79
2022/05/09 01:05:08;;;;;;;4.20;3.80;;;17.40;99.90;;;;;;5063149;28;20456;-79
2022/05/09 01:07:37;;;;;;;5.00;4.43;;;17.30;99.90;;;;;;5060570;28;20463;-79
2022/05/09 01:10:07;;;;;;;3.90;3.60;;;17.30;99.90;;;;;;5063824;28;20460;-78
2022/05/09 01:12:39;;;;;;;4.70;4.30;;;17.30;99.90;;;;;;5060355;28;20468;-80
2022/05/09 01:15:12;;;;;;;4.50;4.10;;;17.30;99.90;;;;;;5060453;28;21020;-81
2022/05/09 01:17:41;;;;;;;3.80;3.50;;;17.30;99.90;;;;;;5062373;28;20452;-79
2022/05/09 01:20:11;;;;;;;5.60;3.60;;;17.20;99.90;;;;;;5096376;28;20547;-78
2022/05/09 01:22:42;;;;;;;5.10;4.30;;;17.20;99.90;;;;;;5062604;28;20482;-80
2022/05/09 01:25:16;;;;;;;4.33;4.03;;;17.20;99.90;;;;;;5063898;28;20467;-79
2022/05/09 01:27:47;;;;;;;4.47;4.07;;;17.20;99.90;;;;;;5065482;28;20983;-80
2022/05/09 01:30:20;;;;;;;4.67;3.80;;;17.10;99.90;;;;;;5061297;28;21110;-79
2022/05/09 01:32:54;;;;;;;4.77;4.07;;;17.10;99.90;;;;;;5066650;28;21008;-80
2022/05/09 01:35:25;;;;;;;4.90;4.50;;;17.10;99.90;;;;;;5062961;28;20466;-81
2022/05/09 01:38:02;;;;;;;4.47;4.17;;;17.10;99.90;;;;;;5063391;28;20456;-79
2022/05/09 01:40:30;;;;;;;4.60;4.20;;;17.10;99.90;;;;;;5063040;28;20463;-79
2022/05/09 01:42:58;;;;;;;5.23;3.90;;;17.00;99.90;;;;;;5061570;28;20474;-79
2022/05/09 01:45:27;;;;;;;4.70;4.20;;;16.90;99.90;;;;;;5057867;28;20453;-79
2022/05/09 01:50:41;;;;;;;4.67;4.27;;;16.80;99.90;;;;;;5059995;28;20475;-79
2022/05/09 01:53:11;;;;;;;4.70;4.30;;;16.90;99.90;;;;;;5061329;28;20475;-80
2022/05/09 01:55:39;;;;;;;4.20;3.80;;;16.90;99.90;;;;;;5058136;28;20453;-80
2022/05/09 01:58:07;;;;;;;5.87;4.30;;;16.90;99.90;;;;;;5063670;28;20520;-83
2022/05/09 02:00:36;;;;;;;4.40;4.10;;;16.80;99.90;;;;;;5060477;28;20457;-81
2022/05/09 02:03:04;;;;;;;8.90;4.23;;;16.80;99.90;;;;;;5058683;28;20487;-79
2022/05/09 02:05:32;;;;;;;5.30;4.83;;;16.80;99.90;;;;;;5062022;28;20451;-80
2022/05/09 02:08:02;;;;;;;5.70;5.03;;;16.80;99.90;;;;;;5062270;28;20537;-80
2022/05/09 02:10:33;;;;;;;4.10;3.73;;;16.80;99.90;;;;;;5060467;28;20449;-80
2022/05/09 02:13:02;;;;;;;4.90;4.50;;;16.70;99.90;;;;;;5064426;28;20459;-80
2022/05/09 02:15:31;;;;;;;5.30;4.87;;;16.70;99.90;;;;;;5057328;28;20439;-80
2022/05/09 02:17:59;;;;;;;5.73;4.90;;;16.70;99.90;;;;;;5057293;28;20913;-79
2022/05/09 02:20:28;;;;;;;4.23;3.93;;;16.70;99.90;;;;;;5059221;28;21033;-80
2022/05/09 02:22:56;;;;;;;4.07;3.77;;;16.60;99.90;;;;;;5061601;28;20489;-79
2022/05/09 02:25:29;;;;;;;5.33;4.83;;;16.60;99.90;;;;;;5061321;28;20463;-79
2022/05/09 02:27:59;;;;;;;4.87;4.40;;;16.60;99.90;;;;;;5062361;28;20499;-79
2022/05/09 02:30:28;;;;;;;5.07;3.93;;;16.60;99.90;;;;;;5061867;28;20453;-80
2022/05/09 02:32:57;;;;;;;4.00;3.70;;;16.50;99.90;;;;;;5059766;28;20499;-80
2022/05/09 02:35:25;;;;;;;4.37;3.97;;;16.50;99.90;;;;;;5059322;28;20526;-79
2022/05/09 02:37:53;;;;;;;5.43;4.83;;;16.50;99.90;;;;;;5062391;28;20475;-79
2022/05/09 02:40:24;;;;;;;4.83;4.43;;;16.50;99.90;;;;;;5061303;28;20497;-80
2022/05/09 02:42:52;;;;;;;4.03;3.63;;;16.50;99.90;;;;;;5057553;28;20470;-79
2022/05/09 02:45:22;;;;;;;5.10;4.60;;;16.50;99.90;;;;;;5059345;28;20451;-79
2022/05/09 02:47:51;;;;;;;6.73;5.57;;;16.40;99.90;;;;;;5061565;28;20452;-79
2022/05/09 02:50:21;;;;;;;8.27;6.50;;;16.40;99.90;;;;;;5061269;28;20545;-80
2022/05/09 02:52:50;;;;;;;6.23;5.63;;;16.40;99.90;;;;;;5062255;28;20489;-79
2022/05/09 02:55:19;;;;;;;6.80;6.20;;;16.40;99.90;;;;;;5065270;28;20464;-79
2022/05/09 02:57:48;;;;;;;7.30;5.17;;;16.40;99.90;;;;;;5064622;28;20581;-78
2022/05/09 03:00:19;;;;;;;5.10;4.70;;;16.30;99.90;;;;;;5066386;28;20464;-79
2022/05/09 03:05:39;;;;;;;5.67;5.17;;;16.30;99.90;;;;;;5067515;28;20462;-80
2022/05/09 03:08:08;;;;;;;7.33;4.70;;;16.30;99.90;;;;;;5066459;28;20456;-80
2022/05/09 03:10:37;;;;;;;4.73;4.20;;;16.30;99.90;;;;;;5063934;28;21021;-80
2022/05/09 03:13:08;;;;;;;6.00;4.10;;;16.30;99.90;;;;;;5066238;28;20489;-80
2022/05/09 03:15:38;;;;;;;5.00;4.50;;;16.30;99.90;;;;;;5064938;28;20454;-79
2022/05/09 03:18:09;;;;;;;5.67;4.30;;;16.20;99.90;;;;;;5069367;28;20507;-79
2022/05/09 03:20:38;;;;;;;6.13;4.70;;;16.10;99.90;;;;;;5065307;28;20811;-79
2022/05/09 03:23:07;;;;;;;5.10;4.67;;;16.10;99.90;;;;;;5069159;28;20479;-78
2022/05/09 03:25:37;;;;;;;5.87;5.37;;;16.10;99.90;;;;;;5065328;28;20438;-79
2022/05/09 03:28:06;;;;;;;4.47;4.10;;;16.00;99.90;;;;;;5065366;28;20455;-78
2022/05/09 03:30:36;;;;;;;4.93;4.53;;;16.00;99.90;;;;;;5062378;28;20463;-78
2022/05/09 03:33:06;;;;;;;5.57;5.07;;;16.10;99.90;;;;;;5064255;28;20493;-79
2022/05/09 03:35:36;;;;;;;4.97;4.47;;;16.00;99.90;;;;;;5064105;28;20582;-78
2022/05/09 03:38:05;;;;;;;4.70;4.30;;;16.00;99.90;;;;;;5067365;28;20443;-80
2022/05/09 03:40:34;;;;;;;4.87;4.37;;;16.00;99.90;;;;;;5068980;28;20527;-79
2022/05/09 03:43:03;;;;;;;4.33;4.00;;;16.00;99.90;;;;;;5059479;28;20474;-79
2022/05/09 03:45:31;;;;;;;4.80;4.40;;;15.90;99.90;;;;;;5062845;28;20451;-78
2022/05/09 03:47:59;;;;;;;5.13;4.77;;;15.90;99.90;;;;;;5065249;28;20572;-80
2022/05/09 03:50:29;;;;;;;5.20;4.77;;;15.90;99.90;;;;;;5062671;28;20822;-79
2022/05/09 03:52:58;;;;;;;5.10;4.70;;;15.90;99.90;;;;;;5067940;28;20527;-80
2022/05/09 03:55:27;;;;;;;7.30;4.80;;;15.90;99.90;;;;;;5062334;28;20504;-79
2022/05/09 03:57:56;;;;;;;5.77;5.17;;;15.90;99.90;;;;;;5062949;28;20448;-80
2022/05/09 04:00:27;;;;;;;5.23;4.83;;;15.90;99.90;;;;;;5059858;28;20462;-79
2022/05/09 04:02:56;;;;;;;5.70;5.20;;;15.80;99.90;;;;;;5060889;28;20474;-80
2022/05/09 04:05:30;;;;;;;5.70;4.67;;;15.90;99.90;;;;;;5067469;28;20454;-80
2022/05/09 04:08:01;;;;;;;4.77;4.40;;;15.90;99.90;;;;;;5072841;28;20447;-83
2022/05/09 04:10:31;;;;;;;5.23;4.83;;;15.80;99.90;;;;;;5072342;28;21050;-83
2022/05/09 04:13:00;;;;;;;6.80;4.40;;;15.80;99.90;;;;;;5074782;28;20491;-82
2022/05/09 04:18:17;;;;;;;5.10;4.70;;;15.80;99.90;;;;;;5064995;28;20489;-79
2022/05/09 04:20:46;;;;;;;8.27;5.37;;;15.80;99.90;;;;;;5067493;28;20451;-79
2022/05/09 04:23:17;;;;;;;6.30;5.60;;;15.80;99.90;;;;;;5060928;28;20471;-79
2022/05/09 04:25:45;;;;;;;6.13;5.53;;;15.80;99.90;;;;;;5063579;28;20447;-78
2022/05/09 04:28:16;;;;;;;4.73;4.30;;;15.70;99.90;;;;;;5064623;28;20454;-80
2022/05/09 04:30:45;;;;;;;5.57;5.17;;;15.80;99.90;;;;;;5076010;28;20431;-79
2022/05/09 04:33:13;;;;;;;5.50;5.00;;;15.70;99.90;;;;;;5057628;28;20480;-80
2022/05/09 04:35:43;;;;;;;6.23;5.47;;;15.80;99.90;;;;;;5064118;28;20995;-79
2022/05/09 04:38:18;;;;;;;6.17;5.50;;;15.80;99.90;;;;;;5057032;28;20553;-81
2022/05/09 04:40:50;;;;;;;5.60;4.70;;;15.80;99.90;;;;;;5064539;28;20454;-79
2022/05/09 04:43:18;;;;;;;5.90;5.30;;;15.80;99.90;;;;;;5060548;28;20537;-81
2022/05/09 04:45:48;;;;;;;5.90;5.00;;;15.70;99.90;;;;;;5057092;28;20444;-79
2022/05/09 04:48:17;;;;;;;5.33;4.47;;;15.80;99.90;;;;;;5062604;28;20469;-78
2022/05/09 04:50:45;;;;;;;5.57;5.07;;;15.70;99.90;;;;;;5061534;28;21168;-78
2022/05/09 04:53:13;;;;;;;5.50;5.00;;;15.70;99.90;;;;;;5062095;28;20505;-81
2022/05/09 04:55:43;;;;;;;5.63;5.13;;;15.80;99.90;;;;;;5062815;28;20458;-80
2022/05/09 04:58:13;;;;;;;5.33;4.70;;;15.80;99.90;;;;;;5058994;28;20473;-79
2022/05/09 05:00:42;;;;;;;5.57;4.97;;;15.80;99.90;;;;;;5060576;28;20478;-79
2022/05/09 05:03:10;;;;;;;5.20;4.80;;;15.80;99.90;;;;;;5063238;28;20504;-81
2022/05/09 05:05:39;;;;;;;6.70;5.27;;;15.90;99.90;;;;;;5055459;28;20451;-79
2022/05/09 05:08:08;;;;;;;5.07;4.67;;;15.90;99.90;;;;;;5062058;28;20458;-79
2022/05/09 05:10:37;;;;;;;7.30;4.80;;;15.90;99.90;;;;;;5063358;28;20462;-80
2022/05/09 05:13:06;;;;;;;6.60;5.63;;;15.90;99.90;;;;;;5063264;28;20547;-78
2022/05/09 05:15:35;;;;;;;5.80;4.87;;;16.00;99.90;;;;;;5059248;28;20468;-80
2022/05/09 05:18:03;;;;;;;5.37;4.97;;;16.00;99.90;;;;;;5063620;28;20445;-79
2022/05/09 05:20:32;;;;;;;6.30;5.10;;;16.00;99.90;;;;;;5063342;28;20456;-77
2022/05/09 05:23:00;;;;;;;6.93;5.23;;;16.00;99.90;;;;;;5067129;28;21024;-79
2022/05/09 05:25:30;;;;;;;5.67;5.10;;;16.00;99.90;;;;;;5060467;28;20535;-78
2022/05/09 05:27:58;;;;;;;5.83;5.30;;;16.00;99.90;;;;;;5065797;28;21075;-79
2022/05/09 05:30:28;;;;;;;7.10;5.97;;;16.10;99.90;;;;;;5066102;28;20454;-77
2022/05/09 05:32:57;;;;;;;5.93;5.27;;;16.20;99.90;;;;;;5065864;28;20489;-78
2022/05/09 05:35:26;;;;;;;6.17;5.60;;;16.20;99.90;;;;;;5063245;28;20449;-77
2022/05/09 05:37:54;;;;;;;6.10;5.50;;;16.20;99.90;;;;;;5067213;28;20520;-78
2022/05/09 05:40:22;;;;;;;10.53;7.40;;;16.20;99.90;;;;;;5069928;28;20463;-79
2022/05/09 05:42:52;;;;;;;6.50;5.80;;;16.20;99.90;;;;;;5054946;28;20866;-78
2022/05/09 05:45:23;;;;;;;10.27;6.60;;;16.30;99.90;;;;;;5062918;28;20986;-79
2022/05/09 05:47:53;;;;;;;9.50;5.87;;;16.30;99.90;;;;;;5066874;28;20819;-78
2022/05/09 05:50:23;;;;;;;7.43;6.17;;;16.30;99.90;;;;;;5067104;28;20448;-78
2022/05/09 05:52:52;;;;;;;7.33;6.63;;;16.30;99.90;;;;;;5063763;28;20482;-78
2022/05/09 05:55:20;;;;;;;6.67;6.07;;;16.40;99.90;;;;;;5068654;28;20489;-79
2022/05/09 05:57:49;;;;;;;6.27;5.67;;;16.50;99.90;;;;;;5067242;28;20458;-80
2022/05/09 06:00:21;;;;;;;7.43;6.67;;;16.60;99.90;;;;;;5065888;28;20460;-79
2022/05/09 06:02:51;;;;;;;6.47;5.97;;;16.60;99.90;;;;;;5066197;28;20478;-79
2022/05/09 06:05:21;;;;;;;6.87;6.17;;;16.70;99.90;;;;;;5058214;28;20446;-80
2022/05/09 06:07:55;;;;;;;9.67;5.27;;;16.80;99.90;;;;;;5062837;28;20514;-81
2022/05/09 06:10:25;;;;;;;7.67;6.73;;;16.90;99.90;;;;;;5072582;28;20460;-86
2022/05/09 06:12:54;;;;;;;7.73;6.60;;;16.90;99.90;;;;;;5061702;28;21183;-80
2022/05/09 06:15:32;;;;;;;6.60;6.00;;;17.00;99.90;;;;;;5069713;28;20452;-82
2022/05/09 06:18:03;;;;;;;6.50;5.90;;;17.10;99.90;;;;;;5056600;28;20455;-81
2022/05/09 06:20:37;;;;;;;7.83;6.50;;;17.20;99.90;;;;;;5065558;28;20462;-83
2022/05/09 06:23:06;;;;;;;7.13;6.43;;;17.30;99.90;;;;;;5070140;28;20472;-81
2022/05/09 06:25:36;;;;;;;7.23;6.20;;;17.30;99.90;;;;;;5063684;28;20461;-82
2022/05/09 06:28:07;;;;;;;6.03;5.43;;;17.40;99.90;;;;;;5067510;28;20460;-83
2022/05/09 06:30:36;;;;;;;6.13;5.53;;;17.50;99.90;;;;;;5069856;28;20533;-82
2022/05/09 06:33:04;;;;;;;6.00;5.27;;;17.60;99.90;;;;;;5067968;28;20473;-83
2022/05/09 06:35:38;;;;;;;6.33;4.70;;;17.70;99.90;;;;;;5066771;28;20517;-83
2022/05/09 06:38:07;;;;;;;5.37;4.50;;;17.80;99.90;;;;;;5062771;28;21000;-83
2022/05/09 06:40:36;;;;;;;4.90;4.37;;;18.00;99.90;;;;;;5065970;28;20462;-83
2022/05/09 06:43:06;;;;;;;4.97;4.57;;;18.20;99.90;;;;;;5064436;28;20482;-83
2022/05/09 06:45:35;;;;;;;4.87;4.40;;;18.40;99.90;;;;;;5066040;28;20465;-83
2022/05/09 06:48:05;;;;;;;5.13;4.63;;;18.50;99.90;;;;;;5062943;28;20517;-85
2022/05/09 06:50:38;;;;;;;5.33;4.83;;;18.70;99.90;;;;;;5062049;28;20458;-83
2022/05/09 06:53:07;;;;;;;4.57;4.17;;;18.90;99.90;;;;;;5072188;28;20461;-86
2022/05/09 06:55:46;;;;;;;5.40;3.90;;;19.10;99.90;;;;;;5084592;28;20549;-81
2022/05/09 06:58:17;;;;;;;3.67;3.47;;;19.30;99.90;;;;;;5070733;28;20471;-82
2022/05/09 07:00:46;;;;;;;4.70;4.30;;;19.40;99.90;;;;;;5068997;28;20449;-82
2022/05/09 07:03:15;;;;;;;4.50;4.10;;;19.50;99.90;;;;;;5068179;28;20463;-82
2022/05/09 07:05:47;;;;;;;6.00;4.47;;;19.70;99.90;;;;;;5068678;28;21200;-83
2022/05/09 07:08:16;;;;;;;4.70;3.70;;;19.80;99.90;;;;;;5068576;28;20941;-85
2022/05/09 07:10:44;;;;;;;5.43;4.93;;;20.00;99.90;;;;;;5069136;28;20435;-83
2022/05/09 07:13:29;;;;;;;4.80;4.40;;;20.00;99.90;;;;;;5069759;28;20556;-82
2022/05/09 07:15:59;;;;;;;4.50;4.20;;;20.20;99.90;;;;;;5099612;28;20508;-82
2022/05/09 07:18:28;;;;;;;4.57;4.27;;;20.30;99.90;;;;;;5100716;28;20454;-83
2022/05/09 07:20:58;;;;;;;4.53;3.97;;;20.40;99.90;;;;;;5066312;28;20447;-82
2022/05/09 07:23:27;;;;;;;4.00;3.70;;;20.40;99.90;;;;;;5069027;28;20551;-83
2022/05/09 07:25:56;;;;;;;4.60;3.87;;;20.50;99.90;;;;;;5066607;28;20458;-82
2022/05/09 07:28:27;;;;;;;4.00;3.70;;;20.50;99.90;;;;;;5063061;28;20456;-82
2022/05/09 07:30:57;;;;;;;4.37;4.07;;;20.60;99.90;;;;;;5075202;28;20482;-81
2022/05/09 07:33:25;;;;;;;3.93;3.53;;;20.70;99.90;;;;;;5071648;28;20508;-82
2022/05/09 07:35:54;;;;;;;3.33;3.13;;;20.70;99.90;;;;;;5068867;28;20457;-82
2022/05/09 07:38:23;;;;;;;3.97;3.67;;;20.80;99.90;;;;;;5074333;28;20481;-82
2022/05/09 07:40:52;;;;;;;4.10;3.80;;;20.80;99.90;;;;;;5070538;28;20813;-82
2022/05/09 07:43:23;;;;;;;3.73;3.43;;;20.70;99.90;;;;;;5071953;28;20513;-81
2022/05/09 07:45:54;;;;;;;3.83;3.53;;;20.70;99.90;;;;;;5103171;28;20602;-83
2022/05/09 07:48:23;;;;;;;4.90;4.50;;;20.70;99.90;;;;;;5073606;28;20476;-82
2022/05/09 07:50:53;;;;;;;4.60;3.37;;;20.60;99.90;;;;;;5070845;28;20454;-84
2022/05/09 07:53:24;;;;;;;4.30;3.40;;;20.70;99.90;;;;;;5067903;28;20466;-82
2022/05/09 07:55:53;;;;;;;4.30;4.00;;;20.70;99.90;;;;;;5072125;28;21158;-81
2022/05/09 07:58:22;;;;;;;3.60;3.30;;;20.80;99.90;;;;;;5073352;28;20520;-82
2022/05/09 08:00:51;;;;;;;5.13;3.57;;;20.70;99.90;;;;;;5071934;28;21076;-82
2022/05/09 08:03:23;;;;;;;3.70;3.40;;;20.80;99.90;;;;;;5074286;28;21037;-81
2022/05/09 08:05:53;;;;;;;3.13;2.93;;;20.80;99.90;;;;;;5067910;28;20439;-82
2022/05/09 08:08:23;;;;;;;3.13;2.93;;;20.80;99.90;;;;;;5067433;28;20482;-82
2022/05/09 08:10:52;;;;;;;3.73;3.43;;;20.90;99.90;;;;;;5071740;28;20451;-81
2022/05/09 08:13:20;;;;;;;3.10;2.90;;;20.90;99.90;;;;;;5073832;28;20458;-82
2022/05/09 08:15:49;;;;;;;3.33;3.13;;;21.00;99.90;;;;;;5071339;28;20498;-82
2022/05/09 08:18:19;;;;;;;4.03;3.57;;;21.00;99.90;;;;;;5074029;28;20470;-82
2022/05/09 08:20:48;;;;;;;3.93;3.67;;;21.00;99.90;;;;;;5066793;28;20458;-84
2022/05/09 08:23:19;;;;;;;3.40;3.10;;;21.00;99.90;;;;;;5074936;28;20472;-83
2022/05/09 08:25:51;;;;;;;3.53;3.30;;;21.00;99.90;;;;;;5078046;28;20934;-85
2022/05/09 08:28:20;;;;;;;4.10;2.90;;;21.00;99.90;;;;;;5075658;28;20453;-82
2022/05/09 08:30:49;;;;;;;3.65;3.35;;;21.10;99.90;;;;;;5072862;28;20436;-82
2022/05/09 08:33:21;;;;;;;7.90;3.80;;;21.10;99.90;;;;;;5069139;28;20212;-81
2022/05/09 08:35:50;;;;;;;4.07;3.67;;;21.20;99.90;;;;;;5071537;28;20467;-82
2022/05/09 08:38:20;;;;;;;2.77;2.57;;;21.10;99.90;;;;;;5071284;28;20951;-82
2022/05/09 08:41:02;;;;;;;3.53;3.23;;;21.10;99.90;;;;;;5070993;28;20463;-85
2022/05/09 08:43:48;;;;;;;3.90;3.50;;;21.20;99.90;;;;;;5068286;28;20468;-82
2022/05/09 08:46:30;;;;;;;4.33;3.23;;;21.20;99.90;;;;;;5067676;28;20539;-82
2022/05/09 08:49:29;;;;;;;4.23;2.90;;;21.20;99.90;;;;;;5066531;28;20451;-83
2022/05/09 08:52:09;;;;;;;3.53;2.93;;;21.30;99.90;;;;;;5069192;28;20982;-82
2022/05/09 08:54:37;;;;;;;3.63;3.40;;;21.30;99.90;;;;;;5071812;28;20535;-82
2022/05/09 08:57:12;;;;;;;4.83;3.90;;;21.30;99.90;;;;;;5075407;28;20471;-85
2022/05/09 08:59:48;;;;;;;3.17;2.97;;;21.40;99.90;;;;;;5099150;28;20456;-82
2022/05/09 09:02:25;;;;;;;2.80;2.60;;;21.40;99.90;;;;;;5070895;28;20451;-82
2022/05/09 09:04:58;;;;;;;3.50;3.20;;;21.40;99.90;;;;;;5070970;28;20814;-83
2022/05/09 09:07:48;;;;;;;3.80;3.50;;;21.40;99.90;;;;;;5064105;28;20456;-84
2022/05/09 09:10:24;;;;;;;3.40;3.10;;;21.40;99.90;;;;;;5064328;28;20446;-82
2022/05/09 09:13:06;;;;;;;3.70;3.40;;;21.50;99.90;;;;;;5071913;28;20984;-81
2022/05/09 09:15:45;;;;;;;3.53;3.23;;;21.50;99.90;;;;;;5064881;28;20479;-83
2022/05/09 09:18:27;;;;;;;3.03;2.63;;;21.60;99.90;;;;;;5069605;28;20462;-82
2022/05/09 09:21:01;;;;;;;3.73;2.73;;;21.60;99.90;;;;;;5063816;28;20461;-81
2022/05/09 09:23:57;;;;;;;4.40;2.97;;;21.70;99.90;;;;;;5068165;28;20472;-83
2022/05/09 09:26:34;;;;;;;2.93;2.73;;;21.60;99.90;;;;;;5065659;28;20464;-81
2022/05/09 09:29:11;;;;;;;3.10;2.80;;;21.70;99.90;;;;;;5068246;28;20496;-83
2022/05/09 09:31:47;;;;;;;3.40;3.20;;;21.70;99.90;;;;;;5067604;28;20441;-83
2022/05/09 09:34:27;;;;;;;3.87;2.80;;;21.70;99.90;;;;;;5072058;28;20475;-83
2022/05/09 09:37:07;;;;;;;3.47;3.17;;;21.70;99.90;;;;;;5061484;28;20850;-83
2022/05/09 09:39:35;;;;;;;3.33;3.13;;;21.80;99.90;;;;;;5065564;28;20527;-82
2022/05/09 09:42:04;;;;;;;2.83;2.63;;;21.90;99.90;;;;;;5070252;28;20481;-82
2022/05/09 09:44:38;;;;;;;2.93;2.63;;;21.90;99.90;;;;;;5066712;28;20502;-83
2022/05/09 09:47:10;;;;;;;3.83;3.30;;;21.80;99.90;;;;;;5071599;28;20454;-83
2022/05/09 09:50:14;;;;;;;2.83;2.63;;;21.90;99.90;;;;;;5066996;28;20463;-81
2022/05/09 09:52:46;;;;;;;3.43;3.13;;;22.00;99.90;;;;;;5068426;28;20996;-81
2022/05/09 09:55:24;;;;;;;4.30;3.13;;;21.90;99.90;;;;;;5068530;28;20463;-81
2022/05/09 09:57:53;;;;;;;3.73;3.43;;;21.90;99.90;;;;;;5072126;28;20500;-81
2022/05/09 10:00:27;;;;;;;2.93;2.73;;;21.90;99.90;;;;;;5072100;28;21201;-81
2022/05/09 10:03:18;;;;;;;6.17;4.47;;;21.90;99.90;;;;;;5066506;28;20477;-83
2022/05/09 10:05:48;;;;;;;3.50;3.30;;;21.90;99.90;;;;;;5069299;28;20543;-82
2022/05/09 10:08:26;;;;;;;3.90;3.60;;;21.90;99.90;;;;;;5069176;28;20451;-82
2022/05/09 10:10:57;;;;;;;3.70;3.40;;;22.00;99.90;;;;;;5067183;28;20468;-85
2022/05/09 10:13:34;;;;;;;3.50;3.30;;;22.10;99.90;;;;;;5064111;28;20478;-84
2022/05/09 10:16:05;;;;;;;3.53;3.23;;;22.10;99.90;;;;;;5068115;28;20477;-82
2022/05/09 10:18:35;;;;;;;4.13;3.83;;;22.10;99.90;;;;;;5068156;28;20466;-83
2022/05/09 10:26:56;;;;;;;3.83;3.53;;;22.10;99.90;;;;;;5067088;28;20468;-82
2022/05/09 10:29:36;;;;;;;3.90;3.60;;;22.10;99.90;;;;;;5067246;28;20463;-81
2022/05/09 10:32:11;;;;;;;3.73;3.43;;;22.20;99.90;;;;;;5067087;28;20442;-82
2022/05/09 10:34:47;;;;;;;3.90;3.60;;;22.30;99.90;;;;;;5069083;28;20465;-82
2022/05/09 10:37:24;;;;;;;3.10;2.90;;;22.40;99.90;;;;;;5068893;28;20480;-80
2022/05/09 10:39:59;;;;;;;3.67;3.47;;;22.50;99.90;;;;;;5070648;28;20462;-82
2022/05/09 10:42:34;;;;;;;4.40;4.00;;;22.50;99.90;;;;;;5070601;28;20461;-82
2022/05/09 10:45:07;;;;;;;3.80;3.50;;;22.50;99.90;;;;;;5069570;28;20473;-81
2022/05/09 10:47:45;;;;;;;4.10;3.80;;;22.40;99.90;;;;;;5068494;28;20466;-82
2022/05/09 10:50:18;;;;;;;4.20;3.80;;;22.40;99.90;;;;;;5071505;28;20489;-82
2022/05/09 10:52:59;;;;;;;3.97;3.13;;;22.30;99.90;;;;;;5072974;28;20471;-82
2022/05/09 10:55:33;;;;;;;3.73;3.43;;;22.40;99.90;;;;;;5067117;28;20819;-82
2022/05/09 10:58:06;;;;;;;4.15;3.85;;;22.40;99.90;;;;;;5070183;28;21060;-82
2022/05/09 11:00:39;;;;;;;4.35;3.97;;;22.50;99.90;;;;;;5064390;28;20456;-84
2022/05/09 11:03:17;;;;;;;4.77;4.37;;;22.60;99.90;;;;;;5066441;28;20712;-82
2022/05/09 11:06:00;;;;;;;4.40;4.10;;;22.60;99.90;;;;;;5067064;28;20457;-82
2022/05/09 11:08:36;;;;;;;3.80;3.50;;;22.50;99.90;;;;;;5067156;28;20973;-83
2022/05/09 11:11:12;;;;;;;3.67;3.33;;;22.60;99.90;;;;;;5071781;28;20449;-83
2022/05/09 11:13:54;;;;;;;4.00;3.70;;;22.60;99.90;;;;;;5068744;28;20477;-82
2022/05/09 11:16:33;;;;;;;3.93;3.63;;;22.70;99.90;;;;;;5069800;28;20467;-83
2022/05/09 11:19:29;;;;;;;3.73;3.47;;;22.70;99.90;;;;;;5072244;28;20450;-81
2022/05/09 11:22:05;;;;;;;3.60;3.40;;;22.80;99.90;;;;;;5070682;28;20480;-81
2022/05/09 11:24:52;;;;;;;4.07;3.77;;;22.80;99.90;;;;;;5066602;28;20723;-84
2022/05/09 11:27:40;;;;;;;8.43;4.47;;;22.80;99.90;;;;;;5076175;28;20461;-79
2022/05/09 11:30:24;;;;;;;4.47;4.17;;;22.80;99.90;;;;;;5083551;28;20477;-82
2022/05/09 11:33:03;;;;;;;3.90;3.60;;;22.80;99.90;;;;;;5074928;28;20458;-81
2022/05/09 11:35:34;;;;;;;3.80;3.40;;;22.80;99.90;;;;;;5075312;28;20454;-82
2022/05/09 11:38:41;;;;;;;3.03;2.83;;;22.80;99.90;;;;;;5070862;28;20522;-81
2022/05/09 11:41:25;;;;;;;3.23;3.03;;;22.80;99.90;;;;;;5054569;28;20466;-81
2022/05/09 11:44:10;;;;;;;3.93;3.13;;;22.80;99.90;;;;;;5075577;28;21028;-79
2022/05/09 11:47:14;;;;;;;3.40;3.10;;;23.00;99.90;;;;;;5072420;28;20454;-81
2022/05/09 11:49:58;;;;;;;4.47;4.03;;;23.10;99.90;;;;;;5064995;28;20455;-82
2022/05/09 11:52:29;;;;;;;3.60;3.30;;;23.10;99.90;;;;;;5070021;28;20453;-81
2022/05/09 11:55:06;;;;;;;3.53;3.33;;;23.20;99.90;;;;;;5071307;28;20461;-80
2022/05/09 11:57:39;;;;;;;3.17;2.97;;;23.20;99.90;;;;;;5069741;28;20481;-80
2022/05/09 12:00:11;;;;;;;3.83;3.53;;;23.10;99.90;;;;;;5071434;28;20467;-82
2022/05/09 12:02:49;;;;;;;3.83;3.50;;;23.20;99.90;;;;;;5071685;28;20479;-80
2022/05/09 12:05:43;;;;;;;4.43;3.50;;;23.00;99.90;;;;;;5068540;28;20860;-82
2022/05/09 12:08:20;;;;;;;3.50;3.20;;;23.00;99.90;;;;;;5060209;28;20467;-81
2022/05/09 12:10:50;;;;;;;3.33;3.00;;;23.00;99.90;;;;;;5072628;28;20450;-82
2022/05/09 12:13:50;;;;;;;4.70;4.40;;;23.10;99.90;;;;;;5074903;28;20462;-81
2022/05/09 12:16:45;;;;;;;3.97;3.67;;;23.10;99.90;;;;;;5075905;28;20478;-81
2022/05/09 12:19:26;;;;;;;3.33;3.03;;;23.10;99.90;;;;;;5071103;28;20801;-81
2022/05/09 12:22:44;;;;;;;3.80;3.50;;;23.00;99.90;;;;;;5074095;28;20461;-81
2022/05/09 12:25:59;;;;;;;4.03;3.03;;;22.90;99.90;;;;;;5069108;28;20525;-83
2022/05/09 12:28:30;;;;;;;3.27;3.07;;;23.00;99.90;;;;;;5069961;28;20473;-81
2022/05/09 12:31:00;;;;;;;2.80;2.60;;;23.20;99.90;;;;;;5074319;28;20451;-85
2022/05/09 12:33:35;;;;;;;2.90;2.70;;;23.30;99.90;;;;;;5072340;28;20998;-85
2022/05/09 12:36:09;;;;;;;3.70;3.40;;;23.40;99.90;;;;;;5072141;28;20506;-82
2022/05/09 12:38:41;;;;;;;3.13;2.93;;;23.40;99.90;;;;;;5070076;28;20876;-84
2022/05/09 12:41:13;;;;;;;3.13;2.83;;;23.30;99.90;;;;;;5068671;28;20454;-81
2022/05/09 12:43:46;;;;;;;3.30;3.10;;;23.30;99.90;;;;;;5071647;28;20581;-80
2022/05/09 12:46:23;;;;;;;2.80;2.60;;;23.50;99.90;;;;;;5073106;28;20451;-81
2022/05/09 12:48:53;;;;;;;3.33;3.13;;;23.50;99.90;;;;;;5068676;28;20472;-83
2022/05/09 12:51:22;;;;;;;4.20;3.90;;;23.60;99.90;;;;;;5083777;28;20493;-83
2022/05/09 12:53:51;;;;;;;3.50;3.20;;;23.60;99.90;;;;;;5071515;28;20478;-80
2022/05/09 12:56:24;;;;;;;3.83;3.53;;;23.60;99.90;;;;;;5070352;28;20473;-81
2022/05/09 12:59:02;;;;;;;4.03;3.30;;;23.60;99.90;;;;;;5071694;28;20493;-80
2022/05/09 13:01:30;;;;;;;4.00;3.70;;;23.60;99.90;;;;;;5073213;28;20887;-83
2022/05/09 13:04:21;;;;;;;3.30;3.10;;;23.60;99.90;;;;;;5068106;28;20494;-82
2022/05/09 13:06:52;;;;;;;3.70;3.40;;;23.60;99.90;;;;;;5072176;28;20482;-81
2022/05/09 13:09:23;;;;;;;3.50;2.73;;;23.60;99.90;;;;;;5068452;28;20465;-80
2022/05/09 13:11:57;;;;;;;3.03;2.60;;;23.70;99.90;;;;;;5069817;28;20454;-81
2022/05/09 13:14:30;;;;;;;3.37;3.17;;;23.70;99.90;;;;;;5072000;28;20558;-80
2022/05/09 13:17:03;;;;;;;3.83;2.77;;;23.70;99.90;;;;;;5069387;28;20474;-83
2022/05/09 13:19:33;;;;;;;3.20;3.00;;;23.70;99.90;;;;;;5071141;28;20454;-81
2022/05/09 13:22:04;;;;;;;3.20;2.90;;;23.70;99.90;;;;;;5069682;28;20454;-82
2022/05/09 13:24:34;;;;;;;2.63;2.43;;;23.70;99.90;;;;;;5069655;28;20474;-81
2022/05/09 13:27:06;;;;;;;2.97;2.77;;;23.70;99.90;;;;;;5069314;28;20494;-82
2022/05/09 13:29:38;;;;;;;3.13;2.90;;;23.70;99.90;;;;;;5070127;28;20465;-83